Kaltag, AK

5:00 PM AKDT on July 29, 2014 (GMT -0800)
Kaltag (PAKV) Elev 200 ft | 64.32 °N, 158.74 °W | Change Station

Current weather conditions updated 7 minutes ago

Clear
Clear
74 °F
Feels Like 74 °F
N
7
Wind Variable Wind from ENE

Tomorrow is forecast to be nearly the same temperature as today.

Today
High -- | Low -- °F
--% Chance of Precip.
Yesterday
High -- | Low -- °F
Precip. -- in
5:30 AM 11:49 PM
Waxing Crescent, 8% visible
Pressure 30.24 in
Visibility 10.0 miles
Clouds Clear
Dew Point 43 °F
Humidity 33%
Rainfall 0.00 in
Snow Depth Not available.
UV 5 out of 12
Pollen Not available.
Air Quality Not available.
Flu Activity Not available.
METAR PAKV 300053Z AUTO 06006KT 10SM CLR 23/06 A3023 RMK AO1 SLP240 T02330061 TSNO

More Conditions Fewer Conditions

Pressure 30.24 in
Visibility 10.0 miles
Clouds Clear
Dew Point 43 °F
Humidity 33%
Rainfall 0.00 in
Snow Depth Not available.
UV 5 out of 12
Pollen Not available.
Air Quality Not available.
Flu Activity Not available.
METAR PAKV 300053Z AUTO 06006KT 10SM CLR 23/06 A3023 RMK AO1 SLP240 T02330061 TSNO

More Conditions Fewer Conditions

10-Day Weather Forecast

Almanac

Astronomy

Jul. 29, 2014 Rise Set
Actual Time 5:30 AM AKDT 11:49 PM AKDT
Civil Twilight 3:47 AM AKDT 1:28 AM AKDT
Nautical Twilight Sun does not rise Sun does not rise
Astronomical Twilight Sun does not rise Sun does not rise
Moon 9:48 AM AKDT (7/29) 11:27 PM AKDT (7/29)
Length of Visible Light 21h 40m
Length of Day
18h 18m
Tomorrow will be 6m 36s shorter.
Waxing Crescent, 8% of the Moon is Illuminated
Today
Waxing Crescent
Aug 3
First Quarter
Aug 10
Full
Aug 17
Last Quarter
Aug 25
New

Today's Extremes

State Highs State Lows

Community

WunderPhotos

Upload Photos

1,738,939 photos uploaded!

Nearby

Snow Depth

Station Depth Elevation
Rocky Point 2 in 500 ft
Gobblers Knob 0 in 2030 ft
Susitna Valley High 1 in 375 ft
Coldfoot 0 in 1040 ft
Point Mackenzie 1 in 200 ft

Earthquake Activity

City Distance Mag. Time & Date
No recent earthquake activity has been reported nearby.
Minimum magnitude displayed is 2.5.

Coastal Water Temperatures

Place Temperature
No Stations Reporting

Nearby Weather Stations

Station Location Temp. Heat Index Dew Point Humidity Wind Precip. Elev Updated Type
RAWS KAIYUH AK, Kaltag, AK 74 °F 77 °F 41 °F 30% NNW  at  5 mph 0.00 in / hr 109 ft 4:21 PM AKDT MADIS

Show More Stations Show Fewer Stations